Time;durP1;ratioP1;P1;durP2;ratioP2;P2;SDS_P1;SDS_P2;PMS_P1;PMS_P2;Temp;Humidity;BMP_temperature;BMP_pressure;BME280_temperature;BME280_humidity;BME280_pressure;Samples;Min_cycle;Max_cycle;Signal;HPM_P1;HPM_P2
2022/12/27 00:00:25;;;;;;;8.03;1.80;;;2.40;99.90;;;;;;5035221;28;20229;-79
2022/12/27 00:02:52;;;;;;;8.17;2.00;;;2.40;99.90;;;;;;5042243;28;20241;-78
2022/12/27 00:05:19;;;;;;;9.07;1.93;;;2.40;99.90;;;;;;5036167;28;20227;-78
2022/12/27 00:07:47;;;;;;;11.63;2.10;;;2.40;99.90;;;;;;5037945;28;20561;-78
2022/12/27 00:10:14;;;;;;;12.40;2.80;;;2.40;99.90;;;;;;5053352;28;20230;-77
2022/12/27 00:12:41;;;;;;;6.97;2.03;;;2.40;99.90;;;;;;5034564;28;20264;-78
2022/12/27 00:15:09;;;;;;;9.37;1.93;;;2.40;99.90;;;;;;5035198;28;20314;-78
2022/12/27 00:17:36;;;;;;;9.40;2.33;;;2.40;99.90;;;;;;5041116;28;20235;-78
2022/12/27 00:20:03;;;;;;;7.30;2.17;;;2.40;99.90;;;;;;5038950;28;20229;-80
2022/12/27 00:22:30;;;;;;;5.73;1.93;;;2.40;99.90;;;;;;5015387;28;20237;-78
2022/12/27 00:24:58;;;;;;;7.37;2.10;;;2.40;99.90;;;;;;5012287;28;20801;-79
2022/12/27 00:27:25;;;;;;;10.60;2.00;;;2.40;99.90;;;;;;5033837;28;20246;-78
2022/12/27 00:29:51;;;;;;;13.80;1.90;;;2.40;99.90;;;;;;5033401;28;20934;-78
2022/12/27 00:32:18;;;;;;;10.20;2.70;;;2.40;99.90;;;;;;5039116;28;20218;-78
2022/12/27 00:34:45;;;;;;;11.97;1.83;;;2.40;99.90;;;;;;5035117;28;20237;-79
2022/12/27 00:37:11;;;;;;;8.37;1.80;;;2.40;99.90;;;;;;5029939;28;20227;-80
2022/12/27 00:39:38;;;;;;;8.50;2.40;;;2.40;99.90;;;;;;5025900;28;20261;-78
2022/12/27 00:42:06;;;;;;;5.37;1.90;;;2.40;99.90;;;;;;5049568;28;20227;-79
2022/12/27 00:44:33;;;;;;;8.70;2.10;;;2.40;99.90;;;;;;5040587;28;20234;-79
2022/12/27 00:47:00;;;;;;;11.50;2.60;;;2.40;99.90;;;;;;5040946;28;20327;-79
2022/12/27 00:49:27;;;;;;;6.77;1.60;;;2.40;99.90;;;;;;5045558;28;20222;-78
2022/12/27 00:51:54;;;;;;;8.80;1.90;;;2.40;99.90;;;;;;5045177;28;20238;-78
2022/12/27 00:54:21;;;;;;;8.70;2.63;;;2.40;99.90;;;;;;5038105;28;20261;-79
2022/12/27 00:56:47;;;;;;;9.23;2.13;;;2.40;99.90;;;;;;5040126;28;20695;-78
2022/12/27 00:59:16;;;;;;;7.00;1.87;;;2.40;99.90;;;;;;5043724;28;20657;-78
2022/12/27 01:01:42;;;;;;;9.47;2.20;;;2.30;99.90;;;;;;5043528;28;20230;-80
2022/12/27 01:04:12;;;;;;;7.53;1.97;;;2.30;99.90;;;;;;5038043;28;20248;-79
2022/12/27 01:06:39;;;;;;;6.77;2.00;;;2.30;99.90;;;;;;5039364;28;20305;-79
2022/12/27 01:09:06;;;;;;;11.03;2.27;;;2.30;99.90;;;;;;5046471;28;20731;-79
2022/12/27 01:11:33;;;;;;;11.20;2.33;;;2.30;99.90;;;;;;5037482;28;20254;-78
2022/12/27 01:14:03;;;;;;;8.57;2.30;;;2.30;99.90;;;;;;5037074;28;20229;-78
2022/12/27 01:16:32;;;;;;;8.87;2.40;;;2.20;99.90;;;;;;5035075;28;20234;-79
2022/12/27 01:18:59;;;;;;;8.37;2.10;;;2.20;99.90;;;;;;5050707;28;20226;-79
2022/12/27 01:21:29;;;;;;;6.33;2.27;;;2.20;99.90;;;;;;5035982;28;20823;-79
2022/12/27 01:23:56;;;;;;;7.97;2.40;;;2.20;99.90;;;;;;5041508;28;20222;-79
2022/12/27 01:26:24;;;;;;;7.43;2.13;;;2.20;99.90;;;;;;5036835;28;20221;-79
2022/12/27 01:28:52;;;;;;;13.20;1.90;;;2.10;99.90;;;;;;5036386;28;20226;-79
2022/12/27 01:31:20;;;;;;;11.87;2.27;;;2.10;99.90;;;;;;5039277;28;20248;-79
2022/12/27 01:33:49;;;;;;;9.23;2.07;;;2.10;99.90;;;;;;5055997;28;20229;-79
2022/12/27 01:36:19;;;;;;;8.07;2.30;;;2.10;99.90;;;;;;5031694;28;20239;-79
2022/12/27 01:38:46;;;;;;;9.93;2.40;;;2.10;99.90;;;;;;5040705;28;20289;-78
2022/12/27 01:43:59;;;;;;;6.83;1.90;;;2.10;99.90;;;;;;5042503;28;20705;-78
2022/12/27 01:46:27;;;;;;;9.40;2.37;;;2.10;99.90;;;;;;5035277;28;20239;-78
2022/12/27 01:48:55;;;;;;;6.43;2.00;;;2.10;99.90;;;;;;5039309;28;20213;-79
2022/12/27 01:51:22;;;;;;;10.00;2.47;;;2.00;99.90;;;;;;5035203;28;20231;-79
2022/12/27 01:53:50;;;;;;;10.80;2.00;;;2.10;99.90;;;;;;5056960;28;20282;-78
2022/12/27 01:56:23;;;;;;;7.83;2.07;;;2.00;99.90;;;;;;5033987;28;20228;-78
2022/12/27 01:58:54;;;;;;;10.33;2.07;;;2.00;99.90;;;;;;5036060;28;20312;-79
2022/12/27 02:01:23;;;;;;;8.30;2.20;;;2.00;99.90;;;;;;5040078;28;20219;-78
2022/12/27 02:03:56;;;;;;;9.63;1.90;;;2.00;99.90;;;;;;5038475;28;20936;-79
2022/12/27 02:06:24;;;;;;;10.27;1.97;;;2.00;99.90;;;;;;5048020;28;20236;-79
2022/12/27 02:09:02;;;;;;;7.90;2.13;;;2.00;99.90;;;;;;5038478;28;20219;-80
2022/12/27 02:14:22;;;;;;;6.90;2.40;;;2.00;99.90;;;;;;5035981;28;20217;-79
2022/12/27 02:16:49;;;;;;;6.97;2.10;;;2.00;99.90;;;;;;5037282;28;20227;-79
2022/12/27 02:19:27;;;;;;;7.93;1.77;;;2.10;99.90;;;;;;5038999;28;20893;-80
2022/12/27 02:25:32;;;;;;;5.70;2.33;;;2.10;99.90;;;;;;5018848;28;20230;-80
2022/12/27 02:28:12;;;;;;;7.50;2.10;;;2.20;99.90;;;;;;5036089;28;20472;-80
2022/12/27 02:30:42;;;;;;;5.73;2.17;;;2.20;99.90;;;;;;5036382;28;20280;-80
2022/12/27 02:33:15;;;;;;;7.30;2.00;;;2.20;99.90;;;;;;5037883;28;20766;-80
2022/12/27 02:35:47;;;;;;;11.77;2.00;;;2.20;99.90;;;;;;5039809;28;20243;-80
2022/12/27 02:38:19;;;;;;;7.67;2.07;;;2.20;99.90;;;;;;5035135;28;20229;-80
2022/12/27 02:55:27;;;;;;;9.67;2.20;;;2.10;99.90;;;;;;5028489;28;20688;-80
2022/12/27 02:58:04;;;;;;;7.10;2.47;;;2.10;99.90;;;;;;5033516;28;20642;-79
2022/12/27 03:03:44;;;;;;;9.53;2.20;;;2.10;99.90;;;;;;5052407;28;20223;-80
2022/12/27 03:06:50;;;;;;;5.37;2.17;;;2.00;99.90;;;;;;5031024;28;20725;-80
2022/12/27 03:18:22;;;;;;;6.50;2.30;;;2.10;99.90;;;;;;5009115;28;20214;-80
2022/12/27 03:26:28;;;;;;;9.63;2.80;;;2.10;99.90;;;;;;5020016;28;20234;-79
2022/12/27 03:34:37;;;;;;;7.07;2.30;;;2.10;99.90;;;;;;5013710;28;20313;-80
2022/12/27 03:40:02;;;;;;;5.33;2.47;;;2.10;99.90;;;;;;4998534;28;20902;-79
2022/12/27 03:45:19;;;;;;;10.13;3.20;;;2.10;99.90;;;;;;5001818;28;20757;-80
2022/12/27 03:47:52;;;;;;;7.90;2.50;;;2.10;99.90;;;;;;5007474;28;20300;-80
2022/12/27 03:50:25;;;;;;;9.77;2.80;;;2.20;99.90;;;;;;5034876;28;20223;-80
2022/12/27 03:52:56;;;;;;;12.73;3.07;;;2.20;99.90;;;;;;5040727;28;20230;-79
2022/12/27 03:55:24;;;;;;;9.17;3.20;;;2.30;99.90;;;;;;5038049;28;20317;-80
2022/12/27 03:57:52;;;;;;;12.03;2.70;;;2.30;99.90;;;;;;5038919;28;20274;-80
2022/12/27 04:00:19;;;;;;;6.83;2.90;;;2.40;99.90;;;;;;5042701;28;20307;-79
2022/12/27 04:02:46;;;;;;;7.90;2.70;;;2.40;99.90;;;;;;5046752;28;20231;-79
2022/12/27 04:05:13;;;;;;;9.10;2.43;;;2.40;99.90;;;;;;5044745;22;20295;-79
2022/12/27 04:35:06;;;;;;;10.83;3.27;;;2.90;99.90;;;;;;4994434;28;20228;-80
2022/12/27 04:37:33;;;;;;;6.90;2.80;;;2.90;99.90;;;;;;4980841;28;20225;-79
2022/12/27 04:56:31;;;;;;;6.57;3.20;;;3.00;99.90;;;;;;4976906;28;20961;-80
2022/12/27 05:04:28;;;;;;;9.17;3.77;;;3.00;99.90;;;;;;4981332;28;20234;-79
2022/12/27 05:06:56;;;;;;;7.10;3.23;;;3.00;99.90;;;;;;4985497;28;20382;-80
2022/12/27 05:15:08;;;;;;;7.13;2.97;;;3.00;99.90;;;;;;4925753;28;20398;-79
2022/12/27 05:17:34;;;;;;;8.03;3.10;;;3.00;99.90;;;;;;4976741;28;20315;-79
2022/12/27 05:20:01;;;;;;;8.93;3.73;;;3.00;99.90;;;;;;5001549;28;20228;-79
2022/12/27 05:28:10;;;;;;;10.87;3.47;;;3.10;99.90;;;;;;4922505;28;20240;-80
2022/12/27 05:30:40;;;;;;;9.10;3.63;;;3.00;99.90;;;;;;4994010;28;20363;-81
2022/12/27 05:33:07;;;;;;;8.03;3.37;;;3.00;99.90;;;;;;4983472;28;20233;-83
2022/12/27 05:35:34;;;;;;;11.93;3.50;;;3.00;99.90;;;;;;4996896;28;20280;-79
2022/12/27 05:38:01;;;;;;;16.90;3.67;;;3.10;99.90;;;;;;4986206;28;20230;-80
2022/12/27 05:40:28;;;;;;;8.53;3.70;;;3.00;99.90;;;;;;5000753;28;20233;-81
2022/12/27 05:42:57;;;;;;;12.03;3.80;;;3.00;99.90;;;;;;4989246;28;20789;-81
2022/12/27 05:45:24;;;;;;;10.73;3.67;;;3.00;99.90;;;;;;4981168;28;20580;-82
2022/12/27 05:47:52;;;;;;;10.90;2.93;;;3.00;99.90;;;;;;4984794;28;20783;-84
2022/12/27 05:50:19;;;;;;;35.27;4.73;;;3.00;99.90;;;;;;4983749;28;20228;-82
2022/12/27 05:52:49;;;;;;;19.77;4.77;;;3.00;99.90;;;;;;4981144;28;20762;-81
2022/12/27 05:55:16;;;;;;;16.23;4.10;;;3.00;99.90;;;;;;4986736;28;20812;-81
2022/12/27 05:57:43;;;;;;;10.00;2.93;;;3.00;99.90;;;;;;4995532;28;20233;-82
2022/12/27 06:00:12;;;;;;;6.27;3.40;;;3.00;99.90;;;;;;4995114;28;20288;-82
2022/12/27 06:02:39;;;;;;;13.97;3.60;;;2.90;99.90;;;;;;4993233;28;20244;-81
2022/12/27 06:05:09;;;;;;;7.00;3.13;;;2.90;99.90;;;;;;5000750;28;20236;-80
2022/12/27 06:07:36;;;;;;;6.40;3.40;;;2.90;99.90;;;;;;4980491;28;20258;-82
2022/12/27 06:10:05;;;;;;;10.30;3.53;;;2.90;99.90;;;;;;4995920;28;20312;-84
2022/12/27 06:12:32;;;;;;;8.23;3.23;;;2.90;99.90;;;;;;4986321;28;20228;-83
2022/12/27 06:14:59;;;;;;;9.60;3.30;;;2.90;99.90;;;;;;4991088;28;20220;-81
2022/12/27 06:17:25;;;;;;;6.47;3.30;;;2.90;99.90;;;;;;4984878;28;20225;-82
2022/12/27 06:19:52;;;;;;;9.77;3.20;;;2.90;99.90;;;;;;4995877;28;20225;-82
2022/12/27 06:22:20;;;;;;;9.13;3.43;;;2.90;99.90;;;;;;4996695;28;20221;-82
2022/12/27 06:24:47;;;;;;;10.70;3.30;;;2.90;99.90;;;;;;4979115;28;20228;-82
2022/12/27 06:27:13;;;;;;;8.27;3.70;;;2.90;99.90;;;;;;5001789;28;20217;-81
2022/12/27 06:29:40;;;;;;;6.13;2.80;;;3.00;99.90;;;;;;5001001;28;20696;-81
2022/12/27 06:32:07;;;;;;;8.23;3.00;;;3.00;99.90;;;;;;4990373;28;20697;-80
2022/12/27 06:34:34;;;;;;;7.83;3.07;;;3.00;99.90;;;;;;4995435;28;20233;-82
2022/12/27 06:37:00;;;;;;;6.37;2.83;;;3.00;99.90;;;;;;4986062;28;20233;-80
2022/12/27 06:39:30;;;;;;;6.87;3.00;;;3.00;99.90;;;;;;5006989;28;20222;-81
2022/12/27 06:41:57;;;;;;;8.03;3.30;;;3.00;99.90;;;;;;4987434;28;20859;-80
2022/12/27 06:44:24;;;;;;;9.27;3.00;;;3.00;99.90;;;;;;4994158;28;20291;-81
2022/12/27 06:46:51;;;;;;;8.20;3.13;;;3.00;99.90;;;;;;5000656;28;20553;-81
2022/12/27 06:49:18;;;;;;;7.57;3.33;;;3.00;99.90;;;;;;4983100;28;20220;-81
2022/12/27 06:51:47;;;;;;;6.07;3.00;;;3.00;99.90;;;;;;5007410;28;20236;-80
2022/12/27 06:54:14;;;;;;;7.00;2.87;;;3.00;99.90;;;;;;4995473;28;20731;-81
2022/12/27 06:56:44;;;;;;;6.67;2.70;;;3.10;99.90;;;;;;4996732;28;20782;-81
2022/12/27 06:59:10;;;;;;;8.70;3.03;;;3.00;99.90;;;;;;4999883;28;20483;-81
2022/12/27 07:01:37;;;;;;;7.93;2.70;;;3.10;99.90;;;;;;5004319;28;20244;-81
2022/12/27 07:04:04;;;;;;;6.13;2.73;;;3.10;99.90;;;;;;4983959;28;20270;-81
2022/12/27 07:06:34;;;;;;;4.67;2.37;;;3.10;99.90;;;;;;5002020;28;20221;-81
2022/12/27 07:09:02;;;;;;;8.50;2.20;;;3.10;99.90;;;;;;5000782;28;20921;-81
2022/12/27 07:11:31;;;;;;;6.73;2.60;;;3.10;99.90;;;;;;5000645;28;20233;-81
2022/12/27 07:13:59;;;;;;;6.93;2.67;;;3.10;99.90;;;;;;4984183;28;20721;-80
2022/12/27 07:16:27;;;;;;;9.53;2.60;;;3.10;99.90;;;;;;5000599;28;20228;-81
2022/12/27 07:18:56;;;;;;;8.93;2.87;;;3.10;99.90;;;;;;4983433;28;20379;-81
2022/12/27 07:21:24;;;;;;;6.60;2.83;;;3.20;99.90;;;;;;4988420;28;20225;-80
2022/12/27 07:23:51;;;;;;;6.53;2.93;;;3.10;99.90;;;;;;4987599;28;20233;-80
2022/12/27 07:26:20;;;;;;;29.80;3.63;;;3.10;99.90;;;;;;4986811;28;20224;-81
2022/12/27 07:28:46;;;;;;;5.77;2.70;;;3.10;99.90;;;;;;4973165;28;20218;-81
2022/12/27 07:31:16;;;;;;;10.40;3.10;;;3.10;99.90;;;;;;4982720;28;20589;-80
2022/12/27 07:33:44;;;;;;;8.27;2.67;;;3.10;99.90;;;;;;4984545;28;20305;-81
2022/12/27 07:36:15;;;;;;;7.90;2.70;;;3.10;99.90;;;;;;4995911;28;20243;-81
2022/12/27 07:38:41;;;;;;;7.60;2.73;;;3.00;99.90;;;;;;4997309;28;20295;-81
2022/12/27 07:41:10;;;;;;;5.70;2.70;;;3.00;99.90;;;;;;4998792;28;20486;-81
2022/12/27 07:43:37;;;;;;;6.80;3.50;;;3.00;99.90;;;;;;4992617;28;20231;-81
2022/12/27 07:46:07;;;;;;;10.13;3.03;;;3.00;99.90;;;;;;4985118;28;20319;-81
2022/12/27 07:48:36;;;;;;;7.00;2.83;;;3.00;99.90;;;;;;4999869;28;20723;-81
2022/12/27 07:51:03;;;;;;;4.47;2.77;;;2.90;99.90;;;;;;5000212;28;20223;-81
2022/12/27 07:53:30;;;;;;;7.07;2.80;;;2.90;99.90;;;;;;4984308;28;20224;-81
2022/12/27 07:55:57;;;;;;;6.67;2.80;;;2.90;99.90;;;;;;4993141;28;20553;-81
2022/12/27 07:58:24;;;;;;;9.33;3.50;;;2.90;99.90;;;;;;4984654;28;20239;-81
2022/12/27 08:00:52;;;;;;;7.97;2.97;;;2.80;99.90;;;;;;5001398;28;20284;-81
2022/12/27 08:03:19;;;;;;;7.87;2.77;;;2.80;99.90;;;;;;4986375;28;20296;-81
2022/12/27 08:05:48;;;;;;;6.67;2.90;;;2.80;99.90;;;;;;5005604;28;20318;-80
2022/12/27 08:08:17;;;;;;;8.20;2.63;;;2.90;99.90;;;;;;4991175;28;20225;-81
2022/12/27 08:10:47;;;;;;;10.37;3.47;;;2.80;99.90;;;;;;4976284;28;20232;-81
2022/12/27 08:13:14;;;;;;;9.27;2.97;;;2.80;99.90;;;;;;4990941;28;20261;-81
2022/12/27 08:15:42;;;;;;;5.50;3.03;;;2.90;99.90;;;;;;4987555;28;20237;-81
2022/12/27 08:18:09;;;;;;;11.00;3.10;;;2.90;99.90;;;;;;4996099;28;20230;-81
2022/12/27 08:20:36;;;;;;;6.97;3.13;;;2.90;99.90;;;;;;4989687;28;20217;-81
2022/12/27 08:23:04;;;;;;;7.73;2.70;;;2.90;99.90;;;;;;5005079;28;20602;-81
2022/12/27 08:25:31;;;;;;;5.40;2.47;;;3.00;99.90;;;;;;4977193;28;20243;-81
2022/12/27 08:28:03;;;;;;;10.07;3.17;;;3.00;99.90;;;;;;4993270;28;20402;-81
2022/12/27 08:30:29;;;;;;;6.47;2.70;;;3.00;99.90;;;;;;4983270;28;20649;-81
2022/12/27 08:32:56;;;;;;;14.00;4.10;;;3.10;99.90;;;;;;4996892;28;20225;-80
2022/12/27 08:35:24;;;;;;;7.83;2.57;;;3.10;99.90;;;;;;4990739;28;20897;-81
2022/12/27 08:37:51;;;;;;;7.33;2.87;;;3.20;99.90;;;;;;5016511;28;20225;-81
2022/12/27 08:40:19;;;;;;;8.73;2.93;;;3.20;99.90;;;;;;4979040;28;20227;-81
2022/12/27 08:42:47;;;;;;;6.87;2.87;;;3.20;99.90;;;;;;4986100;28;20229;-81
2022/12/27 08:45:17;;;;;;;7.80;2.53;;;3.30;99.90;;;;;;4980353;28;20222;-81
2022/12/27 08:47:43;;;;;;;7.60;2.60;;;3.30;99.90;;;;;;4981927;28;20221;-81
2022/12/27 08:50:10;;;;;;;7.37;2.70;;;3.30;99.90;;;;;;4984407;28;20222;-81
2022/12/27 08:52:37;;;;;;;7.47;2.63;;;3.30;99.90;;;;;;4989044;28;20725;-81
2022/12/27 08:55:04;;;;;;;7.80;2.70;;;3.30;99.90;;;;;;5000834;28;20209;-81
2022/12/27 08:57:32;;;;;;;6.20;2.33;;;3.30;99.90;;;;;;5001529;28;20893;-81
2022/12/27 08:59:59;;;;;;;9.47;2.43;;;3.40;99.90;;;;;;5004714;28;20231;-81
2022/12/27 09:02:26;;;;;;;8.67;2.50;;;3.40;99.90;;;;;;4983129;28;20863;-81
2022/12/27 09:04:53;;;;;;;8.27;2.77;;;3.30;99.90;;;;;;4992353;28;21026;-81
2022/12/27 09:07:19;;;;;;;7.60;2.53;;;3.40;99.90;;;;;;4990270;28;20221;-81
2022/12/27 09:09:48;;;;;;;7.03;2.47;;;3.40;99.90;;;;;;4989832;28;20225;-81
2022/12/27 09:12:14;;;;;;;11.20;3.20;;;3.40;99.90;;;;;;5020274;28;20675;-81
2022/12/27 09:14:43;;;;;;;7.13;2.43;;;3.50;99.90;;;;;;4980026;28;20588;-81
2022/12/27 09:17:09;;;;;;;10.27;2.80;;;3.50;99.90;;;;;;4992790;28;20228;-80
2022/12/27 09:19:39;;;;;;;8.20;2.77;;;3.50;99.90;;;;;;5001311;28;20232;-80
2022/12/27 09:22:06;;;;;;;7.93;3.17;;;3.50;99.90;;;;;;5005499;28;20704;-80
2022/12/27 09:24:32;;;;;;;7.83;2.73;;;3.50;99.90;;;;;;5011683;28;20716;-80
2022/12/27 09:26:59;;;;;;;9.60;2.90;;;3.50;99.90;;;;;;4983173;28;22742;-81
2022/12/27 09:29:26;;;;;;;9.03;3.17;;;3.50;99.90;;;;;;4987547;28;20222;-81
2022/12/27 09:31:54;;;;;;;7.23;2.87;;;3.50;99.90;;;;;;4988248;28;20329;-81
2022/12/27 09:34:20;;;;;;;9.57;2.50;;;3.60;99.90;;;;;;4981892;28;20224;-81
2022/12/27 09:36:50;;;;;;;6.33;2.90;;;3.60;99.90;;;;;;5003395;28;20265;-81
2022/12/27 09:39:17;;;;;;;8.20;2.77;;;3.60;99.90;;;;;;5002525;28;20222;-80
2022/12/27 09:41:53;;;;;;;9.87;2.90;;;3.70;99.90;;;;;;4996834;28;20233;-81
2022/12/27 09:44:25;;;;;;;15.20;3.10;;;3.70;99.90;;;;;;4996712;28;20272;-81
2022/12/27 09:46:58;;;;;;;7.53;3.00;;;3.70;99.90;;;;;;5005270;28;20230;-81
2022/12/27 09:49:30;;;;;;;7.47;2.40;;;3.80;99.90;;;;;;4981690;28;20231;-81
2022/12/27 09:52:02;;;;;;;8.20;2.80;;;3.90;99.90;;;;;;4989928;28;20218;-80
2022/12/27 09:54:35;;;;;;;7.77;2.70;;;3.90;99.90;;;;;;5004909;28;20221;-80
2022/12/27 09:57:05;;;;;;;8.73;2.80;;;4.00;99.90;;;;;;5000527;28;20232;-81
2022/12/27 09:59:35;;;;;;;9.03;2.60;;;4.00;99.90;;;;;;4984333;28;20230;-80
2022/12/27 10:02:17;;;;;;;7.50;2.90;;;4.10;99.90;;;;;;4971548;28;20223;-81
2022/12/27 10:04:44;;;;;;;13.60;3.07;;;4.10;99.90;;;;;;5002647;28;20588;-80
2022/12/27 10:07:18;;;;;;;9.97;2.50;;;4.20;99.90;;;;;;4998001;28;20726;-82
2022/12/27 10:09:58;;;;;;;9.13;2.43;;;4.30;99.90;;;;;;4986778;28;20243;-83
2022/12/27 10:12:38;;;;;;;10.53;2.97;;;4.50;99.90;;;;;;4988109;28;20243;-83
2022/12/27 10:15:18;;;;;;;7.07;2.60;;;4.50;99.90;;;;;;4986468;28;20687;-83
2022/12/27 10:17:54;;;;;;;9.73;2.80;;;4.60;99.90;;;;;;5005729;28;20308;-82
2022/12/27 10:20:30;;;;;;;9.20;2.60;;;4.70;99.90;;;;;;4999379;28;20223;-83
2022/12/27 10:23:00;;;;;;;9.77;2.30;;;4.80;99.90;;;;;;5002368;28;20218;-83
2022/12/27 10:25:28;;;;;;;11.10;2.80;;;5.00;99.90;;;;;;4983426;28;20243;-83
2022/12/27 10:27:59;;;;;;;7.13;2.20;;;5.20;99.90;;;;;;5016303;28;20222;-82
2022/12/27 10:30:27;;;;;;;9.63;2.60;;;5.30;99.90;;;;;;4982777;28;20230;-83
2022/12/27 10:32:56;;;;;;;7.00;2.33;;;5.50;99.90;;;;;;4998688;28;20251;-81
2022/12/27 10:35:25;;;;;;;9.13;2.47;;;5.70;99.90;;;;;;5009076;28;20247;-82
2022/12/27 10:37:52;;;;;;;10.90;2.70;;;5.80;99.90;;;;;;4990642;28;20232;-83
2022/12/27 10:40:23;;;;;;;7.57;2.40;;;6.00;99.90;;;;;;4988235;28;20245;-83
2022/12/27 10:43:01;;;;;;;10.43;2.50;;;6.10;99.90;;;;;;4994658;28;20793;-83
2022/12/27 10:45:33;;;;;;;5.70;2.30;;;6.20;99.90;;;;;;5000116;28;20311;-82
2022/12/27 10:48:15;;;;;;;7.30;2.50;;;6.20;99.90;;;;;;4976399;28;20252;-82
2022/12/27 10:50:46;;;;;;;7.77;2.17;;;6.30;99.90;;;;;;4987758;28;20248;-82
2022/12/27 10:53:32;;;;;;;12.37;2.60;;;6.30;99.90;;;;;;4989183;28;20257;-82
2022/12/27 10:56:15;;;;;;;7.23;2.07;;;6.30;99.90;;;;;;5023495;28;20229;-83
2022/12/27 10:58:44;;;;;;;7.40;2.00;;;6.30;99.90;;;;;;4991217;28;20886;-83
2022/12/27 11:01:23;;;;;;;6.33;2.23;;;6.30;99.90;;;;;;5000362;28;20224;-83
2022/12/27 11:03:52;;;;;;;12.37;2.43;;;6.20;99.90;;;;;;4986969;28;20236;-83
2022/12/27 11:06:22;;;;;;;6.03;2.27;;;6.10;99.90;;;;;;5008193;28;20430;-82
2022/12/27 11:08:50;;;;;;;7.63;1.97;;;6.00;99.90;;;;;;4993083;28;20256;-82
2022/12/27 11:11:19;;;;;;;5.83;2.30;;;6.00;99.90;;;;;;5012721;28;20309;-82
2022/12/27 11:13:49;;;;;;;8.60;2.10;;;6.00;99.90;;;;;;4992989;28;20236;-83
2022/12/27 11:16:28;;;;;;;9.37;2.70;;;6.00;99.90;;;;;;4981249;28;20297;-81
2022/12/27 11:19:00;;;;;;;6.80;1.77;;;6.10;99.90;;;;;;5005939;28;20237;-81
2022/12/27 11:21:28;;;;;;;5.27;2.00;;;6.10;99.90;;;;;;4986237;28;20621;-82
2022/12/27 11:23:59;;;;;;;8.07;2.43;;;6.20;99.90;;;;;;4987766;28;20220;-82
2022/12/27 11:26:30;;;;;;;7.43;1.93;;;6.20;99.90;;;;;;4984934;28;20237;-82
2022/12/27 11:28:59;;;;;;;9.37;2.77;;;6.30;99.90;;;;;;4987383;28;20224;-82
2022/12/27 11:31:33;;;;;;;4.23;1.90;;;6.20;99.90;;;;;;4989982;28;20314;-82
2022/12/27 11:34:05;;;;;;;9.30;2.53;;;6.20;99.90;;;;;;5008508;28;20243;-82
2022/12/27 11:36:34;;;;;;;8.33;2.60;;;6.20;99.90;;;;;;4995732;28;20238;-82
2022/12/27 11:39:01;;;;;;;4.70;2.50;;;6.20;99.90;;;;;;4983697;28;20226;-82
2022/12/27 11:41:42;;;;;;;6.77;2.40;;;6.20;99.90;;;;;;4996237;28;20235;-83
2022/12/27 11:44:19;;;;;;;12.43;2.13;;;6.10;99.90;;;;;;5009348;28;20219;-83
2022/12/27 11:46:51;;;;;;;6.70;2.17;;;6.20;99.90;;;;;;5002701;28;20233;-84
2022/12/27 11:49:26;;;;;;;12.03;2.40;;;6.20;99.90;;;;;;4986252;28;20233;-82
2022/12/27 11:52:10;;;;;;;4.97;1.80;;;6.20;99.90;;;;;;4986983;28;20228;-82
2022/12/27 11:54:59;;;;;;;8.73;2.40;;;6.20;99.90;;;;;;4980184;28;20645;-83
2022/12/27 11:57:43;;;;;;;5.97;2.33;;;6.30;99.90;;;;;;5001475;28;20224;-84
2022/12/27 12:00:16;;;;;;;7.53;2.60;;;6.40;99.90;;;;;;4998165;28;20233;-83
2022/12/27 12:03:14;;;;;;;8.63;2.27;;;6.50;99.90;;;;;;5002315;28;20259;-84
2022/12/27 12:06:02;;;;;;;7.40;2.20;;;6.50;99.90;;;;;;4999955;28;20221;-84
2022/12/27 12:08:59;;;;;;;8.33;1.90;;;6.50;99.90;;;;;;4977012;28;20224;-84
2022/12/27 12:11:38;;;;;;;8.37;2.80;;;6.50;99.90;;;;;;5004000;28;20235;-83
2022/12/27 12:14:35;;;;;;;6.10;2.10;;;6.50;99.90;;;;;;5000758;28;20313;-84
2022/12/27 12:17:16;;;;;;;7.30;1.93;;;6.40;99.90;;;;;;4978111;28;20301;-85
2022/12/27 12:20:03;;;;;;;12.33;2.43;;;6.40;99.90;;;;;;4991549;28;20234;-84
2022/12/27 12:22:43;;;;;;;12.03;2.63;;;6.30;99.90;;;;;;4981771;28;20232;-84
2022/12/27 12:25:52;;;;;;;6.87;2.07;;;6.20;99.90;;;;;;4991400;28;20227;-84
2022/12/27 12:29:01;;;;;;;7.30;2.30;;;6.10;99.90;;;;;;5009227;28;20766;-84
2022/12/27 12:31:45;;;;;;;5.83;2.20;;;6.10;99.90;;;;;;4926543;29;20237;-84
2022/12/27 12:34:33;;;;;;;9.43;1.97;;;6.10;99.90;;;;;;4921042;28;20235;-83
2022/12/27 12:37:13;;;;;;;11.10;2.47;;;6.10;99.90;;;;;;4974939;28;20298;-84
2022/12/27 12:40:07;;;;;;;7.17;2.10;;;6.10;99.90;;;;;;4990669;28;20283;-84
2022/12/27 12:42:43;;;;;;;10.47;2.57;;;6.00;99.90;;;;;;5016037;28;20656;-84
2022/12/27 12:45:31;;;;;;;8.93;2.27;;;6.00;99.90;;;;;;4987497;28;20645;-85
2022/12/27 12:48:21;;;;;;;10.40;2.60;;;6.00;99.90;;;;;;5017939;28;20253;-85
2022/12/27 12:51:02;;;;;;;6.80;2.40;;;5.90;99.90;;;;;;4985529;28;20223;-85
2022/12/27 12:53:45;;;;;;;8.97;2.50;;;5.80;99.90;;;;;;5003121;28;20238;-86
2022/12/27 12:56:32;;;;;;;11.53;3.20;;;5.80;99.90;;;;;;4999777;28;20223;-86
2022/12/27 12:59:13;;;;;;;8.00;2.60;;;5.60;99.90;;;;;;5004501;28;20224;-85
2022/12/27 13:01:51;;;;;;;7.77;2.50;;;5.60;99.90;;;;;;4987344;28;20231;-85
2022/12/27 13:04:40;;;;;;;6.30;2.80;;;5.50;99.90;;;;;;5000937;28;20277;-85
2022/12/27 13:07:25;;;;;;;10.93;2.80;;;5.40;99.90;;;;;;5010124;28;20224;-85
2022/12/27 13:10:14;;;;;;;7.47;2.13;;;5.40;99.90;;;;;;5011172;28;20234;-84
2022/12/27 13:12:49;;;;;;;8.97;2.60;;;5.30;99.90;;;;;;5000235;28;20238;-87
2022/12/27 13:15:28;;;;;;;8.50;3.00;;;5.20;99.90;;;;;;4990999;28;20685;-84
2022/12/27 13:18:07;;;;;;;10.50;3.07;;;5.20;99.90;;;;;;4991031;28;20233;-83
2022/12/27 13:21:05;;;;;;;7.97;2.50;;;5.10;99.90;;;;;;4977336;28;20239;-82
2022/12/27 13:23:46;;;;;;;8.60;2.43;;;5.10;99.90;;;;;;5004450;28;20316;-82
2022/12/27 13:26:23;;;;;;;8.37;2.33;;;5.00;99.90;;;;;;4996480;28;20674;-84
2022/12/27 13:29:06;;;;;;;9.47;2.40;;;4.90;99.90;;;;;;4992403;28;20310;-81
2022/12/27 13:31:43;;;;;;;7.27;2.13;;;4.90;99.90;;;;;;4998592;28;20237;-81
2022/12/27 13:34:22;;;;;;;7.17;2.40;;;4.80;99.90;;;;;;4988600;28;20227;-81
2022/12/27 13:37:04;;;;;;;8.50;2.60;;;4.80;99.90;;;;;;5001060;28;20229;-81
2022/12/27 13:39:45;;;;;;;8.77;2.63;;;4.70;99.90;;;;;;5008353;28;20346;-80
2022/12/27 13:42:39;;;;;;;6.93;2.30;;;4.70;99.90;;;;;;4984980;28;20219;-81
2022/12/27 13:45:22;;;;;;;8.07;2.90;;;4.70;99.90;;;;;;5000286;28;20256;-81
2022/12/27 13:48:11;;;;;;;11.07;2.43;;;4.60;99.90;;;;;;4997795;28;20241;-81
2022/12/27 13:51:09;;;;;;;9.30;2.60;;;4.60;99.90;;;;;;5002728;28;20268;-81
2022/12/27 13:54:06;;;;;;;11.27;2.30;;;4.50;99.90;;;;;;4992450;28;20229;-81
2022/12/27 13:56:43;;;;;;;9.10;2.60;;;4.50;99.90;;;;;;5000196;28;20228;-80
2022/12/27 13:59:36;;;;;;;8.97;3.30;;;4.50;99.90;;;;;;4975287;28;20225;-80
2022/12/27 14:02:33;;;;;;;8.63;3.00;;;4.50;99.90;;;;;;4992327;28;20243;-81
2022/12/27 14:05:35;;;;;;;12.90;3.13;;;4.40;99.90;;;;;;5009894;28;20325;-81
2022/12/27 14:08:11;;;;;;;12.33;2.80;;;4.40;99.90;;;;;;4973621;28;20224;-80
2022/12/27 14:10:45;;;;;;;12.83;2.90;;;4.30;99.90;;;;;;4988585;28;20794;-81
2022/12/27 14:13:15;;;;;;;11.30;3.10;;;4.30;99.90;;;;;;4992162;28;20228;-80
2022/12/27 14:16:07;;;;;;;9.87;2.67;;;4.30;99.90;;;;;;4996944;28;20706;-81
2022/12/27 14:18:47;;;;;;;12.53;3.07;;;4.20;99.90;;;;;;5002334;28;20230;-81
2022/12/27 14:21:52;;;;;;;16.27;3.63;;;4.20;99.90;;;;;;4981983;28;20231;-81
2022/12/27 14:24:48;;;;;;;10.23;3.10;;;4.20;99.90;;;;;;4972624;28;20214;-81
2022/12/27 14:28:01;;;;;;;10.50;4.40;;;4.10;99.90;;;;;;5003348;28;20715;-81
2022/12/27 14:30:51;;;;;;;12.87;3.07;;;4.10;99.90;;;;;;4981672;28;20222;-81
2022/12/27 14:33:54;;;;;;;9.97;3.07;;;4.10;99.90;;;;;;4990016;28;20285;-81
2022/12/27 14:36:59;;;;;;;11.27;2.80;;;4.00;99.90;;;;;;4982025;28;20225;-81
2022/12/27 14:40:05;;;;;;;12.57;3.27;;;4.00;99.90;;;;;;4992124;28;20277;-80
2022/12/27 14:43:04;;;;;;;8.93;2.77;;;3.90;99.90;;;;;;4979732;28;20287;-81
2022/12/27 14:46:16;;;;;;;13.27;3.57;;;3.90;99.90;;;;;;4994189;28;20321;-81
2022/12/27 14:49:21;;;;;;;9.87;3.73;;;3.80;99.90;;;;;;4996212;28;20224;-81
2022/12/27 14:52:08;;;;;;;14.17;4.23;;;3.80;99.90;;;;;;5006421;28;20232;-80
2022/12/27 14:55:20;;;;;;;15.00;4.80;;;3.70;99.90;;;;;;5002858;28;20233;-80
2022/12/27 14:57:58;;;;;;;11.13;3.87;;;3.60;99.90;;;;;;4917399;29;20231;-81
2022/12/27 15:00:29;;;;;;;14.53;4.30;;;3.60;99.90;;;;;;4972867;28;20241;-81
2022/12/27 15:03:14;;;;;;;10.30;3.80;;;3.60;99.90;;;;;;5003959;28;20308;-81
2022/12/27 15:05:54;;;;;;;8.87;3.77;;;3.50;99.90;;;;;;4987632;28;20244;-80
2022/12/27 15:08:49;;;;;;;12.70;4.07;;;3.50;99.90;;;;;;4996363;28;20226;-80
2022/12/27 15:11:32;;;;;;;9.63;3.33;;;3.50;99.90;;;;;;4989167;28;20225;-80
2022/12/27 15:14:13;;;;;;;10.30;3.23;;;3.40;99.90;;;;;;4997222;28;20227;-80
2022/12/27 15:16:52;;;;;;;11.07;3.57;;;3.40;99.90;;;;;;4996605;28;20252;-80
2022/12/27 15:19:40;;;;;;;10.60;3.60;;;3.40;99.90;;;;;;4994023;28;20863;-81
2022/12/27 15:22:17;;;;;;;10.33;3.37;;;3.40;99.90;;;;;;4976501;28;20760;-81